Main page
METAR-TAF:

METAR-TAF

Airports :

Belgrade, Serbia

Belgrade Nikola Tesla Airport

latitude: 44-49N, longitude: 020-17E, elevation: 96 m

Current weather observation

The report was made 15 minutes ago, at 20:00 UTC
Wind 7 kt from the Northwest
Temperature 0°C
Humidity 93%
Pressure 1024 hPa
Visibility: 8000 m
Few clouds at a height of 4600 ft

METAR: LYBE 182000Z 31007KT 8000 FEW046 00/M01 Q1024 NOSIG

Time: 21:15 (20:15 UTC)

Forecast

The report was made 3 hours and 15 minutes ago, at 17:00 UTC
Forecast valid from 18 at 18 UTC to 19 at 18 UTC
Wind 8 kt from the West/Northwest
Visibility: 6000 m
Scattered clouds at a height of 4000 ft
Temporary
from 19 at 04 UTC to 19 at 07 UTC
Visibility: 2000 m
mist

TAF: LYBE 181700Z 1818/1918 30008KT 6000 SCT040 TX00/1912Z TNM03/1905Z TEMPO 1904/1907 2000 BR

Weather observations and forecasts of more than 4000 airports (METAR and TAF reports).

The available stations are represented by yellow and red dots on the map.

Hover mouse over dot to see the name of the station.

Then click to see weather observations and forecasts.

To change the map : click on the green buttons with a black cross to zoom in, on the green button with a dash to zoom out, or on the green arrows for adjacent maps.


METAR-TAF: